DIRECCIÓN GENERAL DE AERONÁUTICA CIVIL
DIRECCIÓN METEOROLÓGICA DE CHILE
INFORMACIÓN METAR Y TAF

FIR SANTIAGO

Estación: SCSE
METAR SCSE 040400Z 00000KT 5000 BR OVC008 14/13 Q1016=

TAF SCSE 032200Z 0400/0424 29010KT 8000 SCT007 OVC010 TX17/0418Z TN14/0410Z BECMG 0406/0408 VRB02KT OVC010 TEMPO 0410/0412 3000 BR BKN005 BECMG 0416/0418 30010KT SCT015 BECMG 0418/0420 CAVOK=

Estación: SCER
METAR SCER 161100Z 00000KT 7000 OVC014 12/10 Q1015=

TAF SCER NIL=

Estación: SCRD
METAR SCRD 032200Z 23004KT CAVOK 19/12 Q1013=

TAF SCRD 031006Z 0312/0324 VRB02KT CAVOK TX21/0318Z TN13/0312Z TEMPO 0312/0316 20005KT 2000 BR OVC005 BECMG 0318/0320 20008KT=

Estación: SCVM
METAR SCVM 040400Z 34007KT 8000 NSC 14/13 Q1015=

TAF SCVM 032200Z 0400/0424 00000KT CAVOK TX16/0418Z TN13/0410Z BECMG 0402/0404 SCT015 BECMG 0408/0410 7000 BKN010 TEMPO 0410/0413 0500 FG BKN005 BECMG 0414/0416 30010KT SCT015 BKN150=

Estación: SCTB
METAR SCTB 032200Z 07003KT 7000 NSC 22/10 Q1014=

TAF SCTB 031007Z 0312/0324 01005KT 9999 BKN120 TX25/0318Z TN12/0312Z TEMPO 0312/0316 VRB02KT 5000 HZ SCT100 BECMG 0322/0324 23005KT CAVOK=

Estación: SCEL
METAR SCEL 040400Z VRB02KT 8000 NSC 15/11 Q1015 NOSIG=

TAF SCEL 032200Z 0400/0424 17005KT CAVOK TX22/0418Z TN11/0410Z TEMPO 0408/0412 VRB02KT 5000 HZ BECMG 0416/0418 19012KT BKN150=

Estación: SCSN
METAR SCSN 040400Z AUTO 02006KT 9999 OVC004 14/13 Q1015=

TAF SCSN 031005Z 0312/0324 11005KT CAVOK TX21/0318Z TN12/0312Z TEMPO 0312/0316 20005KT 5000 BR NSC=

Estación: SCRG
METAR SCRG 032000Z 21004KT 9000 NSC 23/08 Q1014=

TAF AMD SCRG 031309Z 0313/0324 00000KT 3500 BR NSC TX26/0318Z TN12/ 0313Z BECMG 0315/0317 20005KT 9999 TEMPO 0318/0322 VRB02KT BECMG 0322 /0324 CAVOK=

Estación: SCIC
METAR SCIC 040400Z AUTO 18005KT 9999 NCD 13/11 Q1014=

TAF SCIC 031009Z 0312/0324 11005KT 1500 BR BKN005 TX22/0318Z TN10/ 0312Z TEMPO 0312/0315 0500 FG OVC002 BECMG 0315/0317 22005KT 3000 BR SCT008 BECMG 0320/0322 7000 SCT010=

Estación: SCCH
METAR SCCH 040400Z AUTO 23006KT 0450 R/////// FG VV001 12/11 Q1014=

TAF SCCH 031010Z 0312/0324 VRB02KT 2000 BR NSC TX20/0318Z TN09/0312Z TEMPO 0312/0315 00000KT 0500 FG VV001 BECMG 0315/0317 20005KT 3000 HZ BKN010 BKN080 BECMG 0318/0320 22010KT BKN070=

Estación: SCIE
METAR SCIE 040400Z 15003KT CAVOK 11/11 Q1015=

TAF SCIE 032200Z 0400/0424 21005KT CAVOK TX16/0418Z TN10/0410Z BECMG 0404/0406 14005KT SCT030 BKN100 TEMPO 0408/0412 SCT060 BECMG 0414/0416 23010KT CAVOK=

Estación: SCGE
METAR SCGE 032100Z 00000KT 9999 FEW030 12/10 Q1019=

TAF SCGE 031011Z 0312/0324 00000KT 5000 BR BKN010 TX17/0318Z TN08/ 0312Z TEMPO 0312/0316 0700 FG VV002 BECMG 0316/0318 20005KT 9999 BKN060=


Volver